Time;durP1;ratioP1;P1;durP2;ratioP2;P2;SDS_P1;SDS_P2;PMS_P1;PMS_P2;Temp;Humidity;BMP_temperature;BMP_pressure;BME280_temperature;BME280_humidity;BME280_pressure;Samples;Min_cycle;Max_cycle;Signal;HPM_P1;HPM_P2
2022/03/19 00:00:33;;;;;;;50.60;35.22;;;9.40;54.70;;;;;;5080099;28;20469;-62
2022/03/19 00:02:59;;;;;;;51.65;37.03;;;9.40;54.80;;;;;;5076758;28;20082;-62
2022/03/19 00:05:24;;;;;;;49.72;35.50;;;9.30;54.70;;;;;;5077977;28;20040;-63
2022/03/19 00:07:50;;;;;;;52.58;36.00;;;9.30;54.80;;;;;;5074051;28;20116;-67
2022/03/19 00:10:17;;;;;;;54.22;38.30;;;9.40;54.80;;;;;;5071755;28;20031;-63
2022/03/19 00:12:42;;;;;;;50.58;35.28;;;9.40;54.70;;;;;;5082323;28;20017;-63
2022/03/19 00:15:09;;;;;;;54.15;37.58;;;9.30;54.80;;;;;;5072941;28;20110;-63
2022/03/19 00:17:35;;;;;;;49.60;35.50;;;9.30;54.90;;;;;;5081632;28;20015;-63
2022/03/19 00:20:02;;;;;;;52.17;36.97;;;9.30;54.70;;;;;;5073530;28;20074;-63
2022/03/19 00:22:28;;;;;;;50.58;37.03;;;9.30;54.80;;;;;;5083303;28;20033;-63
2022/03/19 00:24:53;;;;;;;49.67;36.95;;;9.30;54.90;;;;;;5083907;28;20027;-67
2022/03/19 00:27:19;;;;;;;51.55;36.55;;;9.20;54.80;;;;;;5082761;28;20024;-62
2022/03/19 00:30:04;;;;;;;53.80;37.17;;;9.30;54.80;;;;;;5071990;28;20032;-63
2022/03/19 00:32:30;;;;;;;51.80;35.65;;;9.30;54.90;;;;;;5074994;28;20031;-62
2022/03/19 00:34:55;;;;;;;52.53;37.58;;;9.20;55.10;;;;;;5078679;28;20024;-64
2022/03/19 00:37:21;;;;;;;56.58;39.72;;;9.10;55.50;;;;;;5073817;28;20027;-64
2022/03/19 00:39:47;;;;;;;56.78;39.10;;;9.00;55.60;;;;;;5073707;28;20505;-62
2022/03/19 00:42:12;;;;;;;57.13;38.80;;;9.00;55.70;;;;;;5071277;28;20025;-63
2022/03/19 00:44:38;;;;;;;52.70;37.67;;;9.00;55.90;;;;;;5074875;28;20054;-63
2022/03/19 00:47:04;;;;;;;54.70;39.30;;;8.90;55.90;;;;;;5078674;28;20043;-63
2022/03/19 00:49:48;;;;;;;61.58;39.85;;;9.00;55.90;;;;;;5081273;28;20485;-62
2022/03/19 00:52:14;;;;;;;53.10;37.85;;;9.00;55.90;;;;;;5075023;28;20020;-63
2022/03/19 00:54:40;;;;;;;55.17;36.63;;;9.10;55.80;;;;;;5076136;28;20017;-62
2022/03/19 00:57:05;;;;;;;55.03;38.85;;;9.10;55.70;;;;;;5073954;28;20024;-63
2022/03/19 00:59:31;;;;;;;57.95;39.03;;;9.10;55.70;;;;;;5072560;28;20025;-62
2022/03/19 01:01:57;;;;;;;58.17;39.65;;;9.10;55.60;;;;;;5074168;28;20209;-62
2022/03/19 01:04:24;;;;;;;54.08;38.75;;;9.10;55.80;;;;;;5071833;28;20073;-63
2022/03/19 01:06:50;;;;;;;56.50;38.72;;;9.00;55.80;;;;;;5073987;28;20119;-63
2022/03/19 01:09:34;;;;;;;56.67;39.22;;;9.10;55.80;;;;;;5071401;28;20152;-63
2022/03/19 01:12:00;;;;;;;54.60;39.03;;;9.00;56.00;;;;;;5070869;28;20101;-63
2022/03/19 01:14:26;;;;;;;55.08;39.20;;;8.90;56.00;;;;;;5071285;28;20430;-63
2022/03/19 01:16:52;;;;;;;53.20;39.40;;;8.90;56.00;;;;;;5066690;28;20089;-65
2022/03/19 01:19:52;;;;;;;54.05;38.17;;;8.90;55.90;;;;;;5069960;28;20046;-63
2022/03/19 01:22:03;;;;;;;58.42;40.75;;;8.80;55.70;;;;;;5065601;28;20041;-63
2022/03/19 01:24:29;;;;;;;56.47;39.25;;;8.80;55.80;;;;;;5071622;28;20024;-63
2022/03/19 01:26:54;;;;;;;55.70;38.80;;;8.80;55.70;;;;;;5052659;28;20032;-66
2022/03/19 01:29:20;;;;;;;55.03;39.50;;;8.80;55.80;;;;;;5069759;28;20025;-63
2022/03/19 01:31:46;;;;;;;64.82;41.05;;;8.80;55.80;;;;;;5070146;28;20033;-62
2022/03/19 01:34:12;;;;;;;58.38;40.28;;;8.70;55.90;;;;;;5061752;28;20495;-65
2022/03/19 01:36:37;;;;;;;58.22;39.65;;;8.70;56.00;;;;;;5064124;28;20024;-63
2022/03/19 01:39:03;;;;;;;58.20;39.63;;;8.70;56.00;;;;;;5070291;28;20084;-64
2022/03/19 01:41:47;;;;;;;56.92;39.40;;;8.70;56.00;;;;;;5071517;28;20437;-63
2022/03/19 01:44:20;;;;;;;56.58;38.70;;;8.70;55.90;;;;;;5069448;28;20033;-65
2022/03/19 01:47:01;;;;;;;53.78;37.55;;;8.70;55.80;;;;;;5069938;28;20028;-63
2022/03/19 01:49:29;;;;;;;62.05;39.85;;;8.70;55.80;;;;;;5066840;28;20036;-64
2022/03/19 01:51:55;;;;;;;56.75;38.92;;;8.70;55.60;;;;;;5065536;28;20021;-67
2022/03/19 01:54:29;;;;;;;55.80;38.22;;;8.70;55.50;;;;;;5071934;28;20157;-62
2022/03/19 01:56:56;;;;;;;53.92;34.80;;;8.70;55.20;;;;;;5070204;28;20036;-66
2022/03/19 01:59:28;;;;;;;52.25;35.83;;;8.70;54.60;;;;;;5070557;28;20036;-63
2022/03/19 02:01:55;;;;;;;50.83;34.28;;;8.60;54.00;;;;;;5070400;28;20074;-64
2022/03/19 02:04:30;;;;;;;50.72;32.63;;;8.60;53.10;;;;;;5071102;28;20113;-63
2022/03/19 02:06:58;;;;;;;49.38;34.47;;;8.60;52.60;;;;;;5070147;28;20654;-66
2022/03/19 02:09:25;;;;;;;50.38;33.75;;;8.60;52.50;;;;;;5068771;28;20117;-63
2022/03/19 02:11:51;;;;;;;53.15;34.38;;;8.60;52.10;;;;;;5071120;28;20166;-62
2022/03/19 02:14:18;;;;;;;51.55;35.47;;;8.50;52.00;;;;;;5068693;28;20116;-64
2022/03/19 02:16:45;;;;;;;54.28;35.38;;;8.50;51.80;;;;;;5069472;28;20025;-62
2022/03/19 02:19:12;;;;;;;52.65;34.72;;;8.50;52.00;;;;;;5069606;28;20024;-62
2022/03/19 02:21:46;;;;;;;50.33;34.58;;;8.50;51.80;;;;;;5066128;28;20493;-63
2022/03/19 02:26:58;;;;;;;48.58;31.40;;;8.50;50.50;;;;;;5070227;28;19927;-67
2022/03/19 02:29:25;;;;;;;50.75;30.80;;;8.50;50.70;;;;;;5068707;28;20116;-63
2022/03/19 02:31:54;;;;;;;49.92;31.60;;;8.50;50.30;;;;;;5070446;28;20055;-63
2022/03/19 02:34:20;;;;;;;49.50;32.58;;;8.40;50.30;;;;;;5068850;28;20541;-63
2022/03/19 02:36:46;;;;;;;48.10;31.23;;;8.50;50.30;;;;;;5070721;28;20048;-63
2022/03/19 02:39:28;;;;;;;48.53;32.83;;;8.40;50.20;;;;;;5067872;28;20044;-65
2022/03/19 02:41:55;;;;;;;53.03;31.20;;;8.40;50.30;;;;;;5057248;28;20025;-62
2022/03/19 02:44:22;;;;;;;47.97;31.38;;;8.40;50.00;;;;;;5069869;28;20029;-62
2022/03/19 02:46:56;;;;;;;49.92;31.88;;;8.40;49.90;;;;;;5069439;28;20474;-63
2022/03/19 02:49:23;;;;;;;47.03;31.55;;;8.40;49.90;;;;;;5069637;28;20434;-62
2022/03/19 02:51:50;;;;;;;48.60;31.80;;;8.40;49.90;;;;;;5070472;28;20035;-63
2022/03/19 02:54:19;;;;;;;51.15;32.95;;;8.40;50.20;;;;;;5068439;28;20338;-64
2022/03/19 02:56:45;;;;;;;47.67;32.45;;;8.40;50.20;;;;;;5069004;28;20020;-63
2022/03/19 02:59:22;;;;;;;48.42;32.22;;;8.30;50.00;;;;;;5065942;28;20178;-63
2022/03/19 03:01:53;;;;;;;51.45;31.88;;;8.30;50.10;;;;;;5068673;28;20107;-63
2022/03/19 03:04:19;;;;;;;46.75;31.52;;;8.30;50.20;;;;;;5069578;28;20033;-63
2022/03/19 03:06:47;;;;;;;51.85;31.98;;;8.30;50.30;;;;;;5065218;28;20136;-63
2022/03/19 03:09:13;;;;;;;48.25;32.35;;;8.30;50.50;;;;;;5069146;28;20027;-63
2022/03/19 03:11:40;;;;;;;50.75;31.48;;;8.30;50.60;;;;;;5069535;28;20028;-64
2022/03/19 03:14:10;;;;;;;49.42;33.33;;;8.30;50.80;;;;;;5068147;28;20035;-62
2022/03/19 03:16:38;;;;;;;48.80;33.53;;;8.30;51.20;;;;;;5068586;28;20027;-62
2022/03/19 03:19:06;;;;;;;50.80;33.40;;;8.20;51.50;;;;;;5050911;28;20023;-62
2022/03/19 03:21:35;;;;;;;52.45;34.42;;;8.20;51.80;;;;;;5070564;28;20013;-62
2022/03/19 03:24:01;;;;;;;47.97;31.65;;;8.20;51.90;;;;;;5056756;28;20040;-65
2022/03/19 03:26:28;;;;;;;50.10;32.45;;;8.20;52.10;;;;;;5071067;28;20025;-62
2022/03/19 03:28:53;;;;;;;53.03;33.55;;;8.20;52.10;;;;;;5073747;28;20035;-62
2022/03/19 03:31:19;;;;;;;52.00;32.33;;;8.20;52.10;;;;;;5073131;28;20028;-61
2022/03/19 03:33:45;;;;;;;48.10;32.95;;;8.20;52.20;;;;;;5071925;28;20078;-62
2022/03/19 03:36:11;;;;;;;45.75;31.05;;;8.10;52.10;;;;;;5072981;28;20021;-62
2022/03/19 03:38:37;;;;;;;48.28;32.17;;;8.10;52.10;;;;;;5072626;28;20021;-62
2022/03/19 03:41:03;;;;;;;50.78;33.28;;;8.10;52.00;;;;;;5070455;28;20017;-64
2022/03/19 03:43:29;;;;;;;42.15;30.15;;;8.10;52.00;;;;;;5065619;28;20025;-62
2022/03/19 03:45:56;;;;;;;44.35;29.70;;;8.10;51.90;;;;;;5065584;28;20489;-63
2022/03/19 03:48:21;;;;;;;44.25;30.58;;;8.10;51.90;;;;;;5071687;28;20038;-62
2022/03/19 03:51:07;;;;;;;47.90;31.25;;;8.00;51.70;;;;;;5055407;28;20119;-64
2022/03/19 03:53:35;;;;;;;45.58;31.25;;;8.00;51.70;;;;;;5073513;28;20086;-62
2022/03/19 03:56:02;;;;;;;46.47;31.58;;;8.00;51.50;;;;;;5072599;28;20501;-64
2022/03/19 03:58:28;;;;;;;48.05;29.80;;;8.10;51.50;;;;;;5072437;28;20033;-62
2022/03/19 04:00:55;;;;;;;45.10;29.60;;;8.10;51.40;;;;;;5071507;28;20103;-63
2022/03/19 04:03:21;;;;;;;49.30;30.77;;;8.10;51.30;;;;;;5071366;28;20028;-62
2022/03/19 04:05:47;;;;;;;44.28;30.10;;;8.10;51.00;;;;;;5072966;28;20227;-62
2022/03/19 04:08:12;;;;;;;47.10;32.15;;;8.10;50.80;;;;;;5071990;28;20107;-63
2022/03/19 04:10:38;;;;;;;42.08;30.38;;;8.10;50.60;;;;;;5072507;28;20388;-62
2022/03/19 04:13:04;;;;;;;48.38;30.65;;;8.20;50.60;;;;;;5071725;28;20028;-62
2022/03/19 04:15:30;;;;;;;44.17;30.50;;;8.20;50.30;;;;;;5072994;28;20430;-61
2022/03/19 04:17:56;;;;;;;46.10;30.25;;;8.30;50.20;;;;;;5072197;28;20082;-62
2022/03/19 04:20:22;;;;;;;43.78;29.60;;;8.30;50.00;;;;;;5071959;28;20052;-63
2022/03/19 04:22:49;;;;;;;43.83;28.60;;;8.30;49.70;;;;;;5071167;28;20036;-62
2022/03/19 04:25:17;;;;;;;41.67;28.65;;;8.40;49.30;;;;;;5071446;28;20044;-63
2022/03/19 04:27:45;;;;;;;46.20;30.17;;;8.40;48.90;;;;;;5071826;28;20032;-64
2022/03/19 04:30:13;;;;;;;41.28;28.77;;;8.30;48.70;;;;;;5070909;28;20024;-64
2022/03/19 04:32:40;;;;;;;44.33;29.30;;;8.30;48.70;;;;;;5071839;28;20029;-62
2022/03/19 04:36:29;;;;;;;43.83;28.65;;;8.30;48.60;;;;;;5072048;28;20037;-63
2022/03/19 04:37:51;;;;;;;49.25;29.25;;;8.30;48.50;;;;;;5067932;28;20031;-62
2022/03/19 04:40:17;;;;;;;44.88;29.08;;;8.30;49.10;;;;;;5071230;28;20060;-63
2022/03/19 04:42:43;;;;;;;41.10;27.55;;;8.30;48.40;;;;;;5072552;28;20377;-63
2022/03/19 04:45:09;;;;;;;41.28;28.92;;;8.20;48.20;;;;;;5071623;28;20028;-65
2022/03/19 04:47:35;;;;;;;45.05;28.58;;;8.20;48.20;;;;;;5080454;28;20032;-63
2022/03/19 04:50:04;;;;;;;44.28;28.60;;;8.20;48.10;;;;;;5056898;28;20025;-67
2022/03/19 04:52:30;;;;;;;42.53;28.17;;;8.10;48.00;;;;;;5072332;28;20060;-63
2022/03/19 04:55:00;;;;;;;43.58;30.17;;;8.10;48.20;;;;;;5071054;28;20077;-63
2022/03/19 04:57:27;;;;;;;40.13;28.33;;;8.10;48.20;;;;;;5070015;28;20019;-63
2022/03/19 04:59:53;;;;;;;44.03;28.90;;;8.10;48.10;;;;;;5069692;28;20492;-63
2022/03/19 05:02:20;;;;;;;44.72;29.15;;;8.10;48.20;;;;;;5069666;28;20096;-62
2022/03/19 05:04:46;;;;;;;41.75;28.13;;;8.20;48.10;;;;;;5071824;28;20020;-62
2022/03/19 05:07:11;;;;;;;46.50;28.52;;;8.20;48.00;;;;;;5059188;28;20073;-62
2022/03/19 05:12:39;;;;;;;46.58;29.90;;;8.20;47.60;;;;;;5070884;28;20114;-63
2022/03/19 05:15:07;;;;;;;45.97;29.33;;;8.20;47.60;;;;;;5066655;28;20016;-63
2022/03/19 05:17:33;;;;;;;47.25;28.25;;;8.20;47.70;;;;;;5071901;28;20478;-63
2022/03/19 05:19:58;;;;;;;45.67;29.40;;;8.20;47.80;;;;;;5071164;28;20039;-67
2022/03/19 05:22:24;;;;;;;43.97;30.08;;;8.20;47.90;;;;;;5071149;28;20474;-64
2022/03/19 05:24:50;;;;;;;47.20;30.25;;;8.20;48.10;;;;;;5078195;28;20093;-62
2022/03/19 05:27:17;;;;;;;50.47;32.03;;;8.20;48.70;;;;;;5077860;28;20036;-63
2022/03/19 05:29:42;;;;;;;43.95;30.65;;;8.10;49.10;;;;;;5061168;28;20039;-63
2022/03/19 05:32:09;;;;;;;45.58;30.42;;;8.10;49.30;;;;;;5063035;28;20112;-63
2022/03/19 05:34:35;;;;;;;45.42;31.08;;;8.10;49.40;;;;;;5058321;28;20024;-65
2022/03/19 05:37:03;;;;;;;48.95;31.70;;;8.10;49.50;;;;;;5070487;28;20032;-67
2022/03/19 05:39:29;;;;;;;47.47;30.80;;;8.20;49.60;;;;;;5069987;28;20089;-64
2022/03/19 05:41:55;;;;;;;45.88;31.70;;;8.30;49.60;;;;;;5071560;28;20025;-63
2022/03/19 05:44:21;;;;;;;49.40;31.73;;;8.40;49.30;;;;;;5070394;28;20157;-63
2022/03/19 05:46:47;;;;;;;51.22;34.00;;;8.50;49.30;;;;;;5070802;28;20043;-63
2022/03/19 05:49:13;;;;;;;51.25;33.95;;;8.60;49.20;;;;;;5065579;28;20515;-63
2022/03/19 05:51:39;;;;;;;46.42;31.77;;;8.60;49.10;;;;;;5071273;28;20023;-63
2022/03/19 05:54:05;;;;;;;52.30;33.28;;;8.70;48.80;;;;;;5064281;28;20021;-63
2022/03/19 05:56:31;;;;;;;47.38;31.33;;;8.70;48.50;;;;;;5062504;28;20028;-62
2022/03/19 05:58:57;;;;;;;47.67;32.33;;;8.70;48.30;;;;;;5069558;28;20036;-63
2022/03/19 06:01:26;;;;;;;48.88;30.95;;;8.70;48.40;;;;;;5068362;28;20087;-62
2022/03/19 06:03:55;;;;;;;48.65;32.38;;;8.80;48.20;;;;;;5070429;28;20024;-63
2022/03/19 06:06:21;;;;;;;49.30;30.73;;;8.90;47.20;;;;;;5068092;28;20037;-63
2022/03/19 06:08:47;;;;;;;45.22;30.05;;;8.90;46.30;;;;;;5069849;28;20496;-63
2022/03/19 06:11:13;;;;;;;46.25;31.60;;;8.90;46.40;;;;;;5069751;28;20036;-63
2022/03/19 06:13:38;;;;;;;44.78;31.55;;;8.90;45.80;;;;;;5063815;28;20095;-64
2022/03/19 06:16:04;;;;;;;50.97;31.05;;;9.00;46.00;;;;;;5058578;28;20183;-64
2022/03/19 06:18:52;;;;;;;46.60;30.17;;;9.00;45.80;;;;;;5069290;28;20035;-64
2022/03/19 06:21:19;;;;;;;44.80;30.38;;;9.20;45.60;;;;;;5069939;28;20028;-64
2022/03/19 06:23:46;;;;;;;46.65;30.73;;;9.30;44.60;;;;;;5070505;28;20031;-63
2022/03/19 06:26:12;;;;;;;45.00;29.08;;;9.30;44.60;;;;;;5067884;28;20099;-63
2022/03/19 06:28:38;;;;;;;45.63;30.45;;;9.40;44.60;;;;;;5067379;28;20140;-63
2022/03/19 06:31:04;;;;;;;48.72;32.10;;;9.50;44.20;;;;;;5069582;28;20036;-63
2022/03/19 06:33:30;;;;;;;53.13;32.50;;;9.60;44.00;;;;;;5068790;28;20119;-62
2022/03/19 06:38:40;;;;;;;49.47;31.67;;;9.70;44.70;;;;;;5069647;28;20446;-62
2022/03/19 06:41:06;;;;;;;41.30;28.90;;;9.80;44.60;;;;;;5060824;28;20119;-63
2022/03/19 06:43:32;;;;;;;44.08;30.13;;;9.80;43.50;;;;;;5066868;28;20041;-63
2022/03/19 06:45:58;;;;;;;42.70;28.23;;;9.90;42.60;;;;;;5069259;28;20507;-62
2022/03/19 06:48:27;;;;;;;39.20;27.15;;;10.00;42.20;;;;;;5066661;28;20052;-63
2022/03/19 06:50:56;;;;;;;44.67;27.50;;;10.20;41.70;;;;;;5067392;28;20036;-62
2022/03/19 06:53:41;;;;;;;45.63;28.85;;;10.40;41.10;;;;;;5068552;28;20030;-62
2022/03/19 06:56:07;;;;;;;41.33;27.33;;;10.60;40.80;;;;;;5067154;28;20350;-65
2022/03/19 06:58:33;;;;;;;41.08;27.80;;;10.60;40.00;;;;;;5069287;28;20028;-62
2022/03/19 07:01:00;;;;;;;42.00;27.40;;;10.70;39.80;;;;;;5069342;28;20032;-63
2022/03/19 07:03:25;;;;;;;42.03;26.83;;;10.80;39.70;;;;;;5062648;28;20029;-61
2022/03/19 07:05:51;;;;;;;48.67;28.98;;;10.90;39.20;;;;;;5064092;28;20066;-64
2022/03/19 07:08:16;;;;;;;37.40;26.30;;;10.90;38.90;;;;;;5072262;28;20137;-63
2022/03/19 07:10:42;;;;;;;40.13;27.42;;;10.90;38.10;;;;;;5080112;28;20037;-61
2022/03/19 07:13:08;;;;;;;40.83;27.33;;;11.00;38.40;;;;;;5072229;28;20071;-62
2022/03/19 07:15:34;;;;;;;40.97;27.23;;;11.10;38.40;;;;;;5073527;28;20466;-61
2022/03/19 07:18:01;;;;;;;51.50;29.48;;;11.30;38.10;;;;;;5068752;28;20461;-66
2022/03/19 07:20:28;;;;;;;47.35;28.85;;;11.40;37.80;;;;;;5064836;28;20464;-63
2022/03/19 07:22:54;;;;;;;61.45;30.00;;;12.60;37.80;;;;;;5072165;28;20047;-62
2022/03/19 07:25:24;;;;;;;48.80;28.67;;;14.80;36.40;;;;;;5070661;28;20041;-63
2022/03/19 07:27:51;;;;;;;44.90;29.55;;;17.00;33.50;;;;;;5071843;28;20114;-62
2022/03/19 07:30:17;;;;;;;40.47;27.02;;;19.00;31.20;;;;;;5069940;28;20059;-64
2022/03/19 07:32:43;;;;;;;49.80;28.98;;;20.70;29.60;;;;;;5070071;28;20028;-65
2022/03/19 07:35:09;;;;;;;51.15;26.77;;;22.30;27.50;;;;;;5070441;28;20048;-64
2022/03/19 07:37:37;;;;;;;33.90;24.27;;;23.50;25.80;;;;;;5069644;28;20027;-62
2022/03/19 07:40:05;;;;;;;32.70;22.52;;;24.30;24.30;;;;;;5070295;28;20037;-66
2022/03/19 07:42:30;;;;;;;30.00;21.05;;;25.30;23.70;;;;;;5070352;28;20017;-63
2022/03/19 07:44:56;;;;;;;35.58;23.15;;;26.10;22.90;;;;;;5071047;28;20036;-61
2022/03/19 07:47:22;;;;;;;32.13;20.23;;;26.50;21.50;;;;;;5070058;28;20012;-62
2022/03/19 07:49:48;;;;;;;30.88;22.30;;;27.00;21.30;;;;;;5067920;28;20055;-63
2022/03/19 07:52:13;;;;;;;36.08;21.25;;;27.30;21.10;;;;;;5071077;28;20040;-62
2022/03/19 07:54:39;;;;;;;38.42;22.15;;;27.70;20.70;;;;;;5068489;28;20028;-63
2022/03/19 07:57:06;;;;;;;31.27;22.90;;;28.10;20.50;;;;;;5069759;28;20398;-61
2022/03/19 07:59:33;;;;;;;28.70;22.65;;;28.50;20.30;;;;;;5074789;28;20481;-63
2022/03/19 08:01:59;;;;;;;34.40;22.45;;;28.80;20.10;;;;;;5082028;28;20063;-63
2022/03/19 08:04:25;;;;;;;29.25;20.92;;;29.60;20.00;;;;;;5070402;28;20025;-63
2022/03/19 08:06:55;;;;;;;29.65;22.55;;;29.80;19.60;;;;;;5068889;28;20383;-62
2022/03/19 08:09:22;;;;;;;25.45;21.23;;;30.10;19.40;;;;;;5069316;28;20032;-64
2022/03/19 08:11:47;;;;;;;31.30;21.48;;;30.50;19.50;;;;;;5073269;28;20032;-63
2022/03/19 08:14:14;;;;;;;26.42;22.35;;;30.50;19.50;;;;;;5074273;28;20046;-65
2022/03/19 08:16:43;;;;;;;36.50;22.08;;;30.30;19.10;;;;;;5074679;28;20045;-63
2022/03/19 08:19:12;;;;;;;28.08;22.70;;;30.10;19.20;;;;;;5087694;28;20537;-63
2022/03/19 08:21:45;;;;;;;27.02;23.08;;;29.70;18.90;;;;;;5074443;28;20032;-63
2022/03/19 08:24:12;;;;;;;29.52;23.50;;;29.10;18.90;;;;;;5085839;28;20020;-63
2022/03/19 08:26:39;;;;;;;29.90;23.63;;;28.80;19.00;;;;;;5074496;28;20461;-64
2022/03/19 08:29:05;;;;;;;28.17;24.17;;;28.70;19.10;;;;;;5069604;28;20052;-69
2022/03/19 08:31:32;;;;;;;30.90;23.08;;;27.70;19.00;;;;;;5074339;28;20055;-61
2022/03/19 08:33:58;;;;;;;29.88;23.92;;;27.10;19.60;;;;;;5077450;28;20029;-61
2022/03/19 08:36:25;;;;;;;31.63;24.63;;;27.40;19.90;;;;;;5074154;28;20480;-64
2022/03/19 08:41:43;;;;;;;43.17;25.10;;;26.30;19.50;;;;;;5058819;28;21337;-66
2022/03/19 08:44:09;;;;;;;62.65;26.85;;;24.40;20.60;;;;;;5068494;28;20039;-67
2022/03/19 08:46:36;;;;;;;34.95;22.90;;;23.00;21.50;;;;;;5066769;28;20039;-67
2022/03/19 08:49:02;;;;;;;48.25;26.63;;;21.90;22.30;;;;;;5072359;28;20040;-66
2022/03/19 08:51:39;;;;;;;42.38;26.73;;;21.10;22.80;;;;;;5070021;28;20079;-65
2022/03/19 08:54:10;;;;;;;36.25;25.50;;;20.20;23.30;;;;;;5071380;28;20470;-71
2022/03/19 08:56:36;;;;;;;43.05;26.02;;;19.30;23.90;;;;;;5070271;28;20079;-64
2022/03/19 08:59:04;;;;;;;43.58;28.13;;;18.20;24.90;;;;;;5072045;28;20123;-63
2022/03/19 09:01:30;;;;;;;39.92;27.88;;;17.80;25.50;;;;;;5069785;28;20031;-64
2022/03/19 09:03:56;;;;;;;34.45;26.80;;;17.30;25.90;;;;;;5068964;28;20188;-63
2022/03/19 09:06:22;;;;;;;35.90;26.48;;;17.10;26.30;;;;;;5069141;28;20070;-65
2022/03/19 09:08:49;;;;;;;38.20;27.58;;;16.70;26.50;;;;;;5075560;28;20012;-64
2022/03/19 09:11:19;;;;;;;47.53;28.23;;;16.40;26.90;;;;;;5047898;28;20028;-64
2022/03/19 09:13:49;;;;;;;49.25;29.67;;;16.00;27.40;;;;;;5071616;28;20066;-64
2022/03/19 09:16:15;;;;;;;38.72;26.63;;;15.60;27.90;;;;;;5068512;28;20047;-64
2022/03/19 09:18:41;;;;;;;44.08;27.98;;;15.10;28.40;;;;;;5068704;28;20033;-64
2022/03/19 09:21:07;;;;;;;36.33;27.20;;;15.10;28.60;;;;;;5065352;28;20032;-69
2022/03/19 09:23:33;;;;;;;38.40;26.65;;;14.80;28.70;;;;;;5071999;28;20052;-64
2022/03/19 09:25:59;;;;;;;53.13;28.58;;;14.80;29.00;;;;;;5057606;28;20131;-67
2022/03/19 09:28:25;;;;;;;44.72;29.13;;;14.60;29.10;;;;;;5064311;28;20491;-69
2022/03/19 09:30:51;;;;;;;41.42;27.75;;;14.40;29.40;;;;;;5071984;28;20155;-69
2022/03/19 09:33:17;;;;;;;39.40;27.40;;;14.10;29.50;;;;;;5068589;28;20029;-70
2022/03/19 09:35:43;;;;;;;39.63;28.60;;;14.00;29.70;;;;;;5072100;28;20115;-69
2022/03/19 09:38:09;;;;;;;37.75;26.65;;;13.70;29.90;;;;;;5071816;28;20405;-69
2022/03/19 09:40:34;;;;;;;44.42;27.33;;;13.80;30.00;;;;;;5087761;28;20485;-68
2022/03/19 09:43:00;;;;;;;44.78;26.63;;;13.90;30.10;;;;;;5092306;28;20362;-68
2022/03/19 09:45:28;;;;;;;38.03;27.20;;;14.00;30.20;;;;;;5089970;28;20032;-69
2022/03/19 09:47:55;;;;;;;38.20;27.40;;;14.00;30.10;;;;;;5070765;28;20066;-69
2022/03/19 09:50:26;;;;;;;42.85;28.33;;;14.00;30.00;;;;;;5068352;28;20021;-69
2022/03/19 09:52:54;;;;;;;38.28;27.00;;;14.00;30.00;;;;;;5068440;28;20024;-69
2022/03/19 09:55:20;;;;;;;38.05;27.50;;;13.80;30.10;;;;;;5068733;28;20103;-69
2022/03/19 09:57:47;;;;;;;38.67;27.83;;;13.80;30.30;;;;;;5069466;28;20191;-68
2022/03/19 10:00:13;;;;;;;39.03;24.95;;;13.80;30.10;;;;;;5060261;28;20540;-68
2022/03/19 10:02:55;;;;;;;37.72;25.85;;;13.80;30.10;;;;;;5049368;28;20426;-70
2022/03/19 10:10:50;;;;;;;41.83;26.05;;;13.90;30.10;;;;;;5061481;28;20039;-69
2022/03/19 10:13:16;;;;;;;49.08;24.98;;;13.70;30.00;;;;;;5069717;28;20381;-69
2022/03/19 10:15:44;;;;;;;38.70;25.02;;;13.60;30.10;;;;;;5076488;28;20044;-69
2022/03/19 10:18:10;;;;;;;35.72;23.80;;;13.60;29.80;;;;;;5080815;28;20500;-72
2022/03/19 10:20:37;;;;;;;36.58;23.40;;;13.70;29.80;;;;;;5066097;28;20068;-69
2022/03/19 10:23:04;;;;;;;34.40;21.52;;;13.90;29.50;;;;;;5051459;28;20052;-69
2022/03/19 10:25:30;;;;;;;29.48;20.65;;;14.00;28.90;;;;;;5049780;28;20028;-69
2022/03/19 10:28:11;;;;;;;34.45;20.70;;;13.80;27.70;;;;;;5051188;28;20032;-69
2022/03/19 10:30:38;;;;;;;26.98;19.98;;;13.40;28.10;;;;;;5051120;28;20466;-69
2022/03/19 10:33:10;;;;;;;39.10;21.67;;;13.50;27.80;;;;;;5050859;28;20044;-69
2022/03/19 10:35:39;;;;;;;31.48;21.35;;;13.50;27.90;;;;;;5053733;28;20025;-69
2022/03/19 10:38:19;;;;;;;33.25;22.88;;;13.40;28.10;;;;;;5070245;28;20024;-69
2022/03/19 10:40:51;;;;;;;30.98;21.25;;;13.50;28.10;;;;;;5081303;28;20024;-70
2022/03/19 10:43:19;;;;;;;30.88;21.35;;;13.70;28.10;;;;;;5074327;28;20039;-70
2022/03/19 10:45:46;;;;;;;29.92;20.13;;;13.70;27.60;;;;;;5086646;28;20441;-69
2022/03/19 10:48:13;;;;;;;34.97;21.10;;;13.70;27.30;;;;;;5073036;28;20024;-73
2022/03/19 10:50:40;;;;;;;28.85;20.80;;;13.30;27.50;;;;;;5075634;28;20454;-68
2022/03/19 10:53:07;;;;;;;30.58;20.60;;;13.30;27.90;;;;;;5068893;28;20017;-69
2022/03/19 10:55:33;;;;;;;31.83;20.52;;;13.50;28.00;;;;;;5076899;28;20350;-69
2022/03/19 10:57:58;;;;;;;26.67;19.30;;;13.70;27.10;;;;;;5075946;28;20020;-69
2022/03/19 11:00:24;;;;;;;28.77;20.17;;;13.60;27.20;;;;;;5069506;28;20035;-68
2022/03/19 11:02:54;;;;;;;31.23;17.70;;;13.60;27.40;;;;;;5068315;28;20098;-69
2022/03/19 11:05:21;;;;;;;31.60;18.63;;;13.50;26.40;;;;;;5066200;28;20385;-69
2022/03/19 11:07:49;;;;;;;29.85;18.67;;;13.50;26.40;;;;;;5069119;28;20055;-69
2022/03/19 11:10:18;;;;;;;28.02;18.23;;;13.60;26.40;;;;;;5082514;28;20032;-70
2022/03/19 11:12:50;;;;;;;27.70;18.85;;;13.60;26.40;;;;;;5071581;28;20471;-72
2022/03/19 11:15:19;;;;;;;27.92;19.20;;;13.80;26.50;;;;;;5087946;28;20028;-69
2022/03/19 11:17:45;;;;;;;35.92;21.70;;;13.90;26.50;;;;;;5090587;28;20110;-68
2022/03/19 11:20:13;;;;;;;32.95;19.85;;;13.80;26.80;;;;;;5088476;28;20055;-72
2022/03/19 11:22:44;;;;;;;29.38;19.85;;;13.90;26.70;;;;;;5090029;28;20020;-68
2022/03/19 11:25:25;;;;;;;29.13;20.17;;;14.10;26.60;;;;;;5071292;28;20037;-69
2022/03/19 11:28:00;;;;;;;31.67;21.50;;;14.20;26.60;;;;;;5048984;28;20032;-68
2022/03/19 11:30:30;;;;;;;30.45;20.13;;;14.40;26.50;;;;;;5064815;28;20102;-70
2022/03/19 11:33:09;;;;;;;28.13;19.95;;;14.50;26.30;;;;;;5065441;28;20051;-69
2022/03/19 11:35:41;;;;;;;32.13;19.27;;;14.50;25.80;;;;;;5059104;28;20151;-68
2022/03/19 11:38:13;;;;;;;33.13;23.25;;;14.50;26.30;;;;;;5048399;28;20043;-70
2022/03/19 11:40:47;;;;;;;28.35;20.25;;;14.50;26.20;;;;;;5059386;28;20119;-70
2022/03/19 11:43:30;;;;;;;29.15;21.17;;;14.20;25.60;;;;;;5078316;28;20140;-74
2022/03/19 11:46:14;;;;;;;29.30;20.30;;;14.10;25.80;;;;;;5048773;28;20025;-69
2022/03/19 11:48:49;;;;;;;30.80;20.70;;;14.30;26.30;;;;;;5073410;28;20520;-69
2022/03/19 11:51:38;;;;;;;29.65;21.85;;;14.50;25.90;;;;;;5093882;28;20119;-76
2022/03/19 11:54:28;;;;;;;32.70;20.17;;;14.40;25.90;;;;;;5087578;28;20042;-68
2022/03/19 11:56:53;;;;;;;29.45;20.73;;;14.10;25.80;;;;;;5063296;28;20109;-69
2022/03/19 11:59:22;;;;;;;28.15;20.67;;;13.80;25.90;;;;;;5067813;28;20056;-68
2022/03/19 12:02:08;;;;;;;57.42;41.00;;;13.80;25.90;;;;;;5079405;28;20154;-69
2022/03/19 12:04:48;;;;;;;30.33;21.73;;;13.80;26.00;;;;;;5093123;28;20053;-68
2022/03/19 12:07:40;;;;;;;32.00;22.48;;;14.00;26.10;;;;;;5093752;28;20059;-68
2022/03/19 12:10:07;;;;;;;32.42;20.38;;;14.30;26.00;;;;;;5087852;28;20058;-69
2022/03/19 12:12:33;;;;;;;30.55;20.40;;;14.50;25.40;;;;;;5087786;28;20029;-71
2022/03/19 12:14:59;;;;;;;33.60;22.63;;;14.50;25.50;;;;;;5072963;28;20053;-69
2022/03/19 12:17:27;;;;;;;27.83;19.67;;;14.60;25.70;;;;;;5074581;28;20087;-70
2022/03/19 12:20:00;;;;;;;28.90;21.40;;;14.80;25.70;;;;;;5070243;28;20036;-68
2022/03/19 12:22:38;;;;;;;27.45;19.85;;;14.80;25.40;;;;;;5067463;28;20112;-68
2022/03/19 12:25:18;;;;;;;31.33;21.35;;;14.80;25.50;;;;;;5071625;28;20033;-69
2022/03/19 12:27:55;;;;;;;30.23;21.08;;;14.70;25.60;;;;;;5073541;28;20109;-68
2022/03/19 12:30:22;;;;;;;36.15;25.33;;;14.90;25.80;;;;;;5073589;28;20098;-68
2022/03/19 12:32:54;;;;;;;29.23;19.70;;;15.10;25.60;;;;;;5070594;28;20132;-69
2022/03/19 12:35:24;;;;;;;44.42;28.60;;;15.00;25.40;;;;;;5074840;28;20158;-66
2022/03/19 12:37:54;;;;;;;32.45;20.45;;;15.10;25.40;;;;;;5074394;28;20028;-70
2022/03/19 12:41:23;;;;;;;111.13;78.25;;;14.90;24.80;;;;;;5071325;28;20101;-66
2022/03/19 12:43:14;;;;;;;47.97;32.97;;;14.70;25.00;;;;;;5072583;28;20377;-69
2022/03/19 12:45:47;;;;;;;27.02;19.75;;;14.60;24.90;;;;;;5071362;28;20028;-68
2022/03/19 12:48:21;;;;;;;25.73;19.02;;;14.60;24.70;;;;;;5050464;28;20903;-77
2022/03/19 12:50:54;;;;;;;;;;;14.40;24.00;;;;;;5054900;28;20056;-70
2022/03/19 12:53:41;;;;;;;31.08;18.75;;;14.40;24.00;;;;;;5051046;28;19922;-71
2022/03/19 12:56:20;;;;;;;29.17;19.02;;;14.40;24.50;;;;;;5070522;28;20110;-69